Time;durP1;ratioP1;P1;durP2;ratioP2;P2;SDS_P1;SDS_P2;PMS_P1;PMS_P2;Temp;Humidity;BMP_temperature;BMP_pressure;BME280_temperature;BME280_humidity;BME280_pressure;Samples;Min_cycle;Max_cycle;Signal;HPM_P1;HPM_P2
2022/07/20 00:00:50;;;;;;;7.22;5.10;;;26.50;90.00;;;;;;5072600;28;20230;-71
2022/07/20 00:03:16;;;;;;;7.57;4.85;;;26.50;90.10;;;;;;5072501;28;20290;-72
2022/07/20 00:05:42;;;;;;;7.05;4.70;;;26.40;90.20;;;;;;5072877;28;20971;-72
2022/07/20 00:08:09;;;;;;;6.15;4.93;;;26.40;90.40;;;;;;5053964;28;20203;-71
2022/07/20 00:13:19;;;;;;;6.40;4.55;;;26.30;90.60;;;;;;5072232;28;20718;-72
2022/07/20 00:15:44;;;;;;;6.28;4.75;;;26.30;90.70;;;;;;5071810;28;20215;-72
2022/07/20 00:18:11;;;;;;;8.18;4.88;;;26.30;90.90;;;;;;5071746;28;20220;-72
2022/07/20 00:20:36;;;;;;;6.82;5.00;;;26.20;91.00;;;;;;5072557;28;20640;-72
2022/07/20 00:23:03;;;;;;;9.13;4.88;;;26.20;91.00;;;;;;5071806;28;20225;-72
2022/07/20 00:25:29;;;;;;;9.48;4.80;;;26.20;91.10;;;;;;5071676;28;20218;-72
2022/07/20 00:27:54;;;;;;;5.15;4.30;;;26.10;91.20;;;;;;5071967;28;20293;-72
2022/07/20 00:30:20;;;;;;;7.10;4.40;;;26.10;91.30;;;;;;5071637;28;20210;-72
2022/07/20 00:32:46;;;;;;;6.90;4.65;;;26.20;91.40;;;;;;5064127;28;20171;-73
2022/07/20 00:35:14;;;;;;;8.50;4.95;;;26.10;91.50;;;;;;5071762;28;20202;-72
2022/07/20 00:37:40;;;;;;;10.00;4.93;;;26.10;91.70;;;;;;5071479;28;20680;-73
2022/07/20 00:40:08;;;;;;;7.75;5.10;;;26.10;91.80;;;;;;5053696;28;20281;-72
2022/07/20 00:42:34;;;;;;;6.63;4.70;;;26.00;91.90;;;;;;5071428;28;20683;-73
2022/07/20 00:45:00;;;;;;;6.90;4.97;;;26.00;92.00;;;;;;5071519;28;20206;-72
2022/07/20 00:47:26;;;;;;;8.07;5.15;;;26.00;92.10;;;;;;5071791;28;20185;-72
2022/07/20 00:49:51;;;;;;;7.25;4.90;;;25.90;92.20;;;;;;5053425;28;20290;-72
2022/07/20 00:52:17;;;;;;;8.25;5.28;;;25.90;92.40;;;;;;5071230;28;20299;-72
2022/07/20 00:54:45;;;;;;;6.93;4.88;;;25.90;92.50;;;;;;5053326;28;20203;-73
2022/07/20 00:57:11;;;;;;;5.97;4.78;;;25.80;92.60;;;;;;5071377;28;20176;-72
2022/07/20 00:59:37;;;;;;;7.15;4.97;;;25.80;92.80;;;;;;5071315;28;20183;-72
2022/07/20 01:02:03;;;;;;;6.70;5.10;;;25.80;92.80;;;;;;5053227;28;20203;-73
2022/07/20 01:04:28;;;;;;;8.15;4.97;;;25.70;92.90;;;;;;5070950;28;20203;-72
2022/07/20 01:06:54;;;;;;;5.93;5.25;;;25.70;93.10;;;;;;5053123;28;20281;-72
2022/07/20 01:09:20;;;;;;;8.15;5.25;;;25.80;93.00;;;;;;5070839;28;20687;-72
2022/07/20 01:11:46;;;;;;;7.53;5.70;;;25.70;93.10;;;;;;5063245;28;20199;-72
2022/07/20 01:14:11;;;;;;;8.27;4.90;;;25.70;93.50;;;;;;5052764;28;20203;-73
2022/07/20 01:16:38;;;;;;;7.43;5.05;;;25.70;93.30;;;;;;5070847;28;20214;-73
2022/07/20 01:19:05;;;;;;;8.90;5.00;;;25.70;93.40;;;;;;5070532;28;20214;-72
2022/07/20 01:21:31;;;;;;;8.68;5.40;;;25.60;93.40;;;;;;5069901;28;20255;-72
2022/07/20 01:23:57;;;;;;;8.18;5.10;;;25.60;93.50;;;;;;5052779;28;20266;-72
2022/07/20 01:26:23;;;;;;;8.70;5.53;;;25.60;93.60;;;;;;5071155;28;20587;-72
2022/07/20 01:28:49;;;;;;;8.32;5.63;;;25.60;93.80;;;;;;5070266;28;20206;-72
2022/07/20 01:31:14;;;;;;;10.05;5.88;;;25.50;93.80;;;;;;5070684;28;20272;-72
2022/07/20 01:33:40;;;;;;;8.73;5.50;;;25.50;93.90;;;;;;5052621;28;20295;-73
2022/07/20 01:36:06;;;;;;;8.30;5.65;;;25.50;94.00;;;;;;5070331;28;20217;-72
2022/07/20 01:38:32;;;;;;;9.73;6.22;;;25.50;94.10;;;;;;5052715;28;20178;-72
2022/07/20 01:40:57;;;;;;;6.20;4.85;;;25.40;94.10;;;;;;5070594;28;20203;-72
2022/07/20 01:43:23;;;;;;;10.27;5.45;;;25.40;94.20;;;;;;5070308;28;20213;-73
2022/07/20 01:45:48;;;;;;;7.78;6.05;;;25.40;94.30;;;;;;5070347;28;20229;-72
2022/07/20 01:48:14;;;;;;;7.97;5.35;;;25.30;94.40;;;;;;5070253;28;20241;-73
2022/07/20 01:50:40;;;;;;;7.93;5.57;;;25.30;94.50;;;;;;5070622;28;20199;-72
2022/07/20 01:53:07;;;;;;;9.85;5.90;;;25.30;94.70;;;;;;5070520;28;20202;-72
2022/07/20 01:55:32;;;;;;;9.55;5.70;;;25.30;94.80;;;;;;5052174;28;20756;-72
2022/07/20 01:57:58;;;;;;;6.65;5.28;;;25.30;94.80;;;;;;5070299;28;20198;-72
2022/07/20 02:00:24;;;;;;;7.70;5.38;;;25.30;94.90;;;;;;5052194;28;20210;-73
2022/07/20 02:02:50;;;;;;;7.05;5.40;;;25.20;94.90;;;;;;5070840;28;20167;-72
2022/07/20 02:05:17;;;;;;;6.85;5.20;;;25.20;95.00;;;;;;5052148;28;20301;-73
2022/07/20 02:07:43;;;;;;;7.68;5.43;;;25.20;95.10;;;;;;5052199;28;20218;-72
2022/07/20 02:10:10;;;;;;;8.52;5.78;;;25.20;95.10;;;;;;5070252;28;20201;-72
2022/07/20 02:12:36;;;;;;;6.78;6.03;;;25.10;95.20;;;;;;5069997;28;20223;-72
2022/07/20 02:15:06;;;;;;;8.93;5.95;;;25.10;95.30;;;;;;5070198;28;20217;-72
2022/07/20 02:17:32;;;;;;;9.82;5.60;;;25.10;95.40;;;;;;5070654;28;20549;-72
2022/07/20 02:19:58;;;;;;;8.52;5.50;;;25.10;95.80;;;;;;5069868;28;20203;-72
2022/07/20 02:22:23;;;;;;;11.98;5.85;;;25.10;95.60;;;;;;5051978;28;20199;-73
2022/07/20 02:24:49;;;;;;;7.10;5.80;;;25.10;95.70;;;;;;5070064;28;20211;-72
2022/07/20 02:27:15;;;;;;;7.25;5.22;;;25.00;95.80;;;;;;5070367;28;20246;-72
2022/07/20 02:29:40;;;;;;;7.43;4.90;;;25.10;96.30;;;;;;5070025;28;20179;-73
2022/07/20 02:32:06;;;;;;;11.18;5.93;;;25.00;96.00;;;;;;5070186;28;20210;-73
2022/07/20 02:34:32;;;;;;;9.60;6.60;;;25.00;96.10;;;;;;5055538;28;20226;-72
2022/07/20 02:36:57;;;;;;;9.23;5.93;;;24.90;96.20;;;;;;5073843;28;20626;-71
2022/07/20 02:39:23;;;;;;;6.63;5.50;;;24.80;96.40;;;;;;5073276;28;20302;-72
2022/07/20 02:41:48;;;;;;;8.25;5.95;;;24.80;96.60;;;;;;5056381;28;20619;-72
2022/07/20 02:44:14;;;;;;;9.93;5.95;;;24.80;96.70;;;;;;5073783;28;20211;-72
2022/07/20 02:46:40;;;;;;;7.60;5.75;;;24.70;96.90;;;;;;5055462;28;20256;-72
2022/07/20 02:49:06;;;;;;;8.23;6.07;;;24.70;97.20;;;;;;5073299;28;20207;-72
2022/07/20 02:51:32;;;;;;;10.00;6.20;;;24.60;97.50;;;;;;5055617;28;20305;-72
2022/07/20 02:53:57;;;;;;;7.32;5.07;;;24.50;97.60;;;;;;5073842;28;20680;-72
2022/07/20 02:56:23;;;;;;;9.57;5.72;;;24.50;97.90;;;;;;5053660;28;20175;-72
2022/07/20 02:58:49;;;;;;;6.88;5.60;;;24.40;98.20;;;;;;5072668;28;20682;-72
2022/07/20 03:01:14;;;;;;;7.65;5.63;;;24.40;98.40;;;;;;5073405;28;20325;-72
2022/07/20 03:03:40;;;;;;;7.88;6.53;;;24.40;98.60;;;;;;5072910;28;20214;-72
2022/07/20 03:06:06;;;;;;;8.98;5.63;;;24.30;98.70;;;;;;5073083;28;20595;-72
2022/07/20 03:08:31;;;;;;;8.88;5.50;;;24.30;99.00;;;;;;5073154;28;20178;-72
2022/07/20 03:10:57;;;;;;;7.57;5.72;;;24.30;99.30;;;;;;5073085;28;20218;-72
2022/07/20 03:13:22;;;;;;;10.52;6.32;;;24.10;99.50;;;;;;5073257;28;20249;-72
2022/07/20 03:15:48;;;;;;;7.30;6.25;;;24.10;99.70;;;;;;5072758;28;20206;-72
2022/07/20 03:18:14;;;;;;;9.68;6.22;;;24.20;99.90;;;;;;5073007;28;20215;-71
2022/07/20 03:20:39;;;;;;;8.93;6.03;;;24.20;99.90;;;;;;5055403;28;20663;-72
2022/07/20 03:23:05;;;;;;;9.38;6.03;;;24.10;99.90;;;;;;5072886;28;20206;-72
2022/07/20 03:25:31;;;;;;;7.72;6.22;;;24.10;99.90;;;;;;5054598;28;20258;-72
2022/07/20 03:27:58;;;;;;;11.25;6.68;;;24.10;99.90;;;;;;5072794;28;20199;-72
2022/07/20 03:30:24;;;;;;;9.43;6.38;;;24.20;99.90;;;;;;5072397;28;20251;-72
2022/07/20 03:32:50;;;;;;;8.32;5.63;;;24.30;99.90;;;;;;5073453;28;20175;-72
2022/07/20 03:35:16;;;;;;;9.68;6.25;;;24.30;99.90;;;;;;5072736;28;20206;-73
2022/07/20 03:37:42;;;;;;;10.13;6.20;;;24.40;99.90;;;;;;5072882;28;20213;-73
2022/07/20 03:40:09;;;;;;;10.40;6.65;;;24.40;99.90;;;;;;5054422;28;20203;-73
2022/07/20 03:42:34;;;;;;;8.90;6.75;;;24.40;99.90;;;;;;5072460;28;20214;-73
2022/07/20 03:45:00;;;;;;;9.52;6.18;;;24.60;99.90;;;;;;5071649;28;20195;-72
2022/07/20 03:47:26;;;;;;;7.40;6.18;;;24.70;99.90;;;;;;5073264;28;20325;-73
2022/07/20 03:49:52;;;;;;;9.30;6.70;;;25.00;99.90;;;;;;5072381;28;20252;-71
2022/07/20 03:52:19;;;;;;;14.30;6.40;;;25.20;99.60;;;;;;5072622;28;20214;-73
2022/07/20 03:54:45;;;;;;;7.50;5.97;;;25.50;99.10;;;;;;5072122;28;20589;-73
2022/07/20 03:57:11;;;;;;;9.95;6.10;;;25.90;98.50;;;;;;5072275;28;20195;-72
2022/07/20 03:59:37;;;;;;;8.38;6.00;;;26.20;98.10;;;;;;5072319;28;20182;-72
2022/07/20 04:02:03;;;;;;;9.98;6.78;;;26.50;97.50;;;;;;5072251;28;20763;-72
2022/07/20 04:04:29;;;;;;;7.30;6.28;;;26.70;96.80;;;;;;5071815;28;20242;-72
2022/07/20 04:06:55;;;;;;;7.10;5.97;;;27.10;96.30;;;;;;5071948;28;20238;-72
2022/07/20 04:12:07;;;;;;;12.20;6.75;;;27.30;95.90;;;;;;5071949;28;20675;-73
2022/07/20 04:17:01;;;;;;;9.20;6.40;;;27.90;94.70;;;;;;5082650;22;20223;-71
2022/07/20 04:19:26;;;;;;;12.38;7.03;;;27.70;94.40;;;;;;5056198;28;20272;-71
2022/07/20 04:21:58;;;;;;;9.40;6.35;;;27.80;94.40;;;;;;5059883;28;20210;-70
2022/07/20 04:24:24;;;;;;;10.82;6.55;;;28.00;94.30;;;;;;5051833;28;20222;-71
2022/07/20 04:26:50;;;;;;;8.07;6.47;;;28.00;94.20;;;;;;5034934;28;20192;-70
2022/07/20 04:29:15;;;;;;;8.57;6.90;;;28.10;93.90;;;;;;5055118;28;20218;-71
2022/07/20 04:31:41;;;;;;;8.10;6.88;;;28.50;93.60;;;;;;5050989;28;20270;-71
2022/07/20 04:34:06;;;;;;;8.90;6.60;;;28.90;93.00;;;;;;5055726;28;20259;-72
2022/07/20 04:36:32;;;;;;;8.10;6.75;;;29.30;92.60;;;;;;5051058;28;20212;-71
2022/07/20 04:38:58;;;;;;;9.18;6.70;;;29.60;91.90;;;;;;5050974;28;20171;-72
2022/07/20 04:41:23;;;;;;;9.55;6.68;;;30.10;91.60;;;;;;5051453;28;20172;-71
2022/07/20 04:43:49;;;;;;;7.22;6.47;;;30.50;90.90;;;;;;5051010;28;20257;-68
2022/07/20 04:46:15;;;;;;;11.88;7.03;;;30.70;90.50;;;;;;5041209;28;20227;-70
2022/07/20 04:48:40;;;;;;;7.57;6.78;;;31.00;89.00;;;;;;5050390;28;20207;-70
2022/07/20 04:51:06;;;;;;;7.68;6.60;;;31.90;88.40;;;;;;5054856;28;20215;-70
2022/07/20 04:53:31;;;;;;;11.98;6.43;;;31.80;86.70;;;;;;5051291;28;20676;-69
2022/07/20 04:55:57;;;;;;;7.50;6.45;;;32.00;85.60;;;;;;5050803;28;20687;-70
2022/07/20 04:58:22;;;;;;;11.70;6.40;;;32.00;85.60;;;;;;5052581;28;20222;-69
2022/07/20 05:00:48;;;;;;;9.85;6.72;;;31.60;84.40;;;;;;5050685;28;20218;-70
2022/07/20 05:03:14;;;;;;;10.50;7.85;;;31.30;85.50;;;;;;5059119;28;20219;-70
2022/07/20 05:05:39;;;;;;;19.55;7.50;;;31.00;86.00;;;;;;5051144;28;20196;-70
2022/07/20 05:08:05;;;;;;;9.25;6.85;;;31.70;84.80;;;;;;5058739;28;20196;-70
2022/07/20 05:10:30;;;;;;;10.02;7.35;;;30.40;85.80;;;;;;5058816;28;20238;-69
2022/07/20 05:12:56;;;;;;;10.95;7.72;;;30.60;86.00;;;;;;5050691;28;20211;-70
2022/07/20 05:15:25;;;;;;;10.15;7.32;;;31.50;85.80;;;;;;5061122;28;20269;-70
2022/07/20 05:17:51;;;;;;;12.05;6.95;;;31.60;83.50;;;;;;5052888;28;20250;-69
2022/07/20 05:20:17;;;;;;;13.25;6.90;;;31.80;84.00;;;;;;5070440;28;20199;-69
2022/07/20 05:22:42;;;;;;;9.38;7.53;;;32.70;83.40;;;;;;5070568;28;20579;-70
2022/07/20 05:25:09;;;;;;;13.23;7.47;;;33.00;81.20;;;;;;5067340;28;20255;-70
2022/07/20 05:27:34;;;;;;;12.27;7.72;;;32.60;81.60;;;;;;5070265;28;20210;-70
2022/07/20 05:30:00;;;;;;;7.85;6.60;;;33.00;80.80;;;;;;5070198;28;20175;-69
2022/07/20 05:32:26;;;;;;;9.00;6.60;;;33.20;79.50;;;;;;5070906;28;20226;-71
2022/07/20 05:34:51;;;;;;;9.57;6.95;;;32.80;80.10;;;;;;5070276;28;20244;-69
2022/07/20 05:37:17;;;;;;;9.40;7.43;;;33.30;80.10;;;;;;5070584;28;20199;-71
2022/07/20 05:39:42;;;;;;;13.15;7.00;;;33.70;78.70;;;;;;5052266;28;20211;-70
2022/07/20 05:42:08;;;;;;;11.38;8.00;;;34.40;77.30;;;;;;5070270;28;20215;-71
2022/07/20 05:44:33;;;;;;;9.35;7.53;;;33.90;76.50;;;;;;5070248;28;20181;-71
2022/07/20 05:46:59;;;;;;;8.88;7.38;;;34.40;75.80;;;;;;5070044;28;20284;-69
2022/07/20 05:49:25;;;;;;;9.57;7.10;;;34.10;75.90;;;;;;5069811;28;20210;-71
2022/07/20 05:51:50;;;;;;;13.88;8.18;;;34.20;76.10;;;;;;5051850;28;20207;-70
2022/07/20 05:54:16;;;;;;;10.32;7.40;;;35.20;75.50;;;;;;5070230;28;20733;-70
2022/07/20 05:56:41;;;;;;;9.25;6.93;;;34.70;74.80;;;;;;5052454;28;20639;-69
2022/07/20 05:59:07;;;;;;;10.00;7.55;;;35.00;73.90;;;;;;5051733;28;20206;-70
2022/07/20 06:01:33;;;;;;;12.02;9.40;;;35.30;72.90;;;;;;5069765;28;20202;-70
2022/07/20 06:03:59;;;;;;;13.60;7.65;;;35.10;73.60;;;;;;5070088;28;20733;-70
2022/07/20 06:06:24;;;;;;;11.45;7.38;;;35.00;72.30;;;;;;5069797;28;20218;-70
2022/07/20 06:08:50;;;;;;;13.55;8.15;;;34.80;74.20;;;;;;5073197;28;20178;-70
2022/07/20 06:11:16;;;;;;;13.63;7.43;;;35.50;72.90;;;;;;5074027;28;20226;-70
2022/07/20 06:13:41;;;;;;;14.02;7.72;;;35.00;72.00;;;;;;5073587;28;20224;-69
2022/07/20 06:16:07;;;;;;;11.40;7.22;;;35.00;72.50;;;;;;5072798;28;20215;-71
2022/07/20 06:18:32;;;;;;;10.82;7.32;;;35.40;73.00;;;;;;5073528;28;20317;-71
2022/07/20 06:20:58;;;;;;;10.82;7.28;;;36.10;71.70;;;;;;5074007;28;20421;-71
2022/07/20 06:23:23;;;;;;;13.55;7.75;;;36.00;70.30;;;;;;5071428;28;20183;-71
2022/07/20 06:25:49;;;;;;;11.77;6.97;;;35.80;70.30;;;;;;5055715;28;20214;-71
2022/07/20 06:28:15;;;;;;;11.05;7.40;;;36.20;69.80;;;;;;5073548;28;20202;-70
2022/07/20 06:30:40;;;;;;;11.30;6.90;;;36.20;69.80;;;;;;5073294;28;20206;-72
2022/07/20 06:33:06;;;;;;;13.00;7.45;;;36.30;70.20;;;;;;5073694;28;20199;-71
2022/07/20 06:35:31;;;;;;;11.10;7.82;;;36.80;71.20;;;;;;5073919;28;20209;-71
2022/07/20 06:37:58;;;;;;;9.60;7.53;;;37.70;69.40;;;;;;5055560;28;20646;-71
2022/07/20 06:40:24;;;;;;;10.88;7.93;;;37.50;68.70;;;;;;5073491;28;20202;-71
2022/07/20 06:42:49;;;;;;;14.18;7.25;;;37.20;68.60;;;;;;5073133;28;20252;-70
2022/07/20 06:45:16;;;;;;;11.27;7.97;;;37.00;68.50;;;;;;5072686;28;20222;-70
2022/07/20 06:47:41;;;;;;;10.85;7.63;;;36.50;68.80;;;;;;5073698;28;20171;-70
2022/07/20 06:50:08;;;;;;;8.68;7.30;;;35.50;70.30;;;;;;5073255;28;20252;-70
2022/07/20 06:52:34;;;;;;;12.20;7.35;;;35.50;70.60;;;;;;5072908;28;20222;-71
2022/07/20 06:55:00;;;;;;;9.52;6.57;;;36.00;71.10;;;;;;5073347;28;20217;-70
2022/07/20 06:57:26;;;;;;;14.13;7.22;;;35.50;70.90;;;;;;5072826;28;20216;-71
2022/07/20 06:59:52;;;;;;;8.50;6.78;;;36.10;69.70;;;;;;5073919;28;20253;-70
2022/07/20 07:02:18;;;;;;;11.43;7.45;;;37.20;68.70;;;;;;5055656;28;20295;-72
2022/07/20 07:04:43;;;;;;;9.65;7.25;;;38.20;67.30;;;;;;5073428;28;20206;-72
2022/07/20 07:07:09;;;;;;;11.15;7.18;;;38.80;65.40;;;;;;5055370;28;20210;-72
2022/07/20 07:09:34;;;;;;;14.32;7.88;;;38.50;65.20;;;;;;5054755;28;20202;-72
2022/07/20 07:12:00;;;;;;;9.95;6.82;;;38.50;65.40;;;;;;5072639;28;20186;-72
2022/07/20 07:14:26;;;;;;;10.23;6.40;;;39.10;63.80;;;;;;5055275;28;20179;-72
2022/07/20 07:16:54;;;;;;;14.73;7.05;;;39.80;63.90;;;;;;5055054;28;20214;-71
2022/07/20 07:19:20;;;;;;;11.18;7.65;;;40.90;63.10;;;;;;5071375;28;20281;-72
2022/07/20 07:21:46;;;;;;;11.90;7.90;;;41.00;61.90;;;;;;5064870;28;20348;-72
2022/07/20 07:24:11;;;;;;;10.38;6.68;;;40.70;60.40;;;;;;5069769;28;20174;-71
2022/07/20 07:26:37;;;;;;;10.75;7.40;;;40.10;61.20;;;;;;5072963;28;20261;-71
2022/07/20 07:29:03;;;;;;;10.57;7.43;;;40.70;60.00;;;;;;5054327;28;20691;-71
2022/07/20 07:31:28;;;;;;;13.43;6.05;;;40.30;60.00;;;;;;5054369;28;20238;-72
2022/07/20 07:33:54;;;;;;;9.90;6.75;;;40.90;59.50;;;;;;5072657;28;20218;-71
2022/07/20 07:36:20;;;;;;;9.10;7.13;;;40.00;60.60;;;;;;5056061;28;20935;-71
2022/07/20 07:38:45;;;;;;;13.27;6.78;;;41.00;59.30;;;;;;5072720;28;20170;-71
2022/07/20 07:41:11;;;;;;;10.75;6.88;;;40.00;60.60;;;;;;5065517;28;20281;-71
2022/07/20 07:43:37;;;;;;;11.07;6.72;;;41.10;59.90;;;;;;5070951;28;20578;-71
2022/07/20 07:46:02;;;;;;;7.93;6.43;;;41.10;59.40;;;;;;5071577;28;20214;-72
2022/07/20 07:48:28;;;;;;;11.02;6.57;;;39.90;58.90;;;;;;5071696;28;20237;-71
2022/07/20 07:50:53;;;;;;;9.98;6.70;;;40.50;59.60;;;;;;5072378;28;20202;-71
2022/07/20 07:53:19;;;;;;;7.85;6.15;;;40.60;59.50;;;;;;5064554;28;20238;-71
2022/07/20 07:55:45;;;;;;;11.30;7.28;;;40.60;59.60;;;;;;5063490;28;20297;-71
2022/07/20 07:58:12;;;;;;;9.60;6.97;;;41.40;59.30;;;;;;5053723;28;20238;-71
2022/07/20 08:00:38;;;;;;;9.32;6.90;;;41.70;58.50;;;;;;5071927;28;20214;-71
2022/07/20 08:03:04;;;;;;;9.55;6.95;;;41.80;58.30;;;;;;5053759;28;20181;-72
2022/07/20 08:05:30;;;;;;;9.55;6.22;;;41.80;57.90;;;;;;5072207;28;20191;-71
2022/07/20 08:07:56;;;;;;;8.52;6.10;;;40.50;59.10;;;;;;5053615;28;20695;-71
2022/07/20 08:10:21;;;;;;;9.77;6.90;;;40.90;59.00;;;;;;5071592;28;20202;-71
2022/07/20 08:12:47;;;;;;;11.18;6.45;;;41.10;59.20;;;;;;5071656;28;20687;-71
2022/07/20 08:15:13;;;;;;;11.93;6.80;;;41.40;58.30;;;;;;5053203;28;20316;-71
2022/07/20 08:17:39;;;;;;;12.05;6.60;;;41.30;58.80;;;;;;5072097;28;20190;-72
2022/07/20 08:20:06;;;;;;;9.35;6.57;;;41.80;58.20;;;;;;5053627;28;20203;-71
2022/07/20 08:22:32;;;;;;;10.25;6.50;;;41.40;57.80;;;;;;5071330;28;20241;-72
2022/07/20 08:24:58;;;;;;;7.80;6.53;;;40.70;58.30;;;;;;5053639;28;20213;-71
2022/07/20 08:27:24;;;;;;;11.00;6.70;;;41.60;58.70;;;;;;5053355;28;20284;-72
2022/07/20 08:29:49;;;;;;;10.02;6.47;;;41.20;57.70;;;;;;5071886;28;20170;-70
2022/07/20 08:32:15;;;;;;;6.65;5.97;;;40.90;58.80;;;;;;5071047;28;20210;-71
2022/07/20 08:34:41;;;;;;;8.75;6.50;;;40.50;57.40;;;;;;5053554;28;20222;-71
2022/07/20 08:37:06;;;;;;;9.52;6.03;;;40.20;57.90;;;;;;5071572;28;20206;-71
2022/07/20 08:39:32;;;;;;;10.95;5.60;;;40.40;58.30;;;;;;5070640;28;20211;-71
2022/07/20 08:41:57;;;;;;;8.18;5.80;;;40.50;57.90;;;;;;5071260;28;20185;-70
2022/07/20 08:44:23;;;;;;;8.98;5.55;;;40.10;58.30;;;;;;5071233;28;20179;-71
2022/07/20 08:46:50;;;;;;;7.78;5.00;;;39.80;58.70;;;;;;5071217;28;20218;-70
2022/07/20 08:49:15;;;;;;;8.15;4.90;;;41.00;58.40;;;;;;5070959;28;20297;-71
2022/07/20 08:51:42;;;;;;;9.88;5.45;;;41.40;57.80;;;;;;5052997;28;20301;-71
2022/07/20 08:54:08;;;;;;;6.82;4.93;;;41.70;57.20;;;;;;5070889;28;20617;-71
2022/07/20 08:56:34;;;;;;;11.60;5.07;;;42.00;56.70;;;;;;5071031;28;20254;-71
2022/07/20 08:58:59;;;;;;;9.65;4.60;;;40.80;56.90;;;;;;5070186;28;20209;-71
2022/07/20 09:01:25;;;;;;;6.88;5.13;;;40.60;57.00;;;;;;5036037;28;20199;-71
2022/07/20 09:04:09;;;;;;;10.13;4.75;;;40.50;57.20;;;;;;5070368;28;20209;-70
2022/07/20 09:06:34;;;;;;;7.97;5.40;;;40.60;57.40;;;;;;5051981;28;20217;-71
2022/07/20 09:09:04;;;;;;;11.15;5.22;;;40.50;57.40;;;;;;5052155;28;20508;-71
2022/07/20 09:11:31;;;;;;;6.25;4.65;;;40.50;57.50;;;;;;5070753;28;20225;-72
2022/07/20 09:13:56;;;;;;;8.32;5.13;;;40.60;57.60;;;;;;5070509;28;20198;-70
2022/07/20 09:16:40;;;;;;;7.93;5.03;;;40.30;57.10;;;;;;5069562;28;20699;-72
2022/07/20 09:19:06;;;;;;;8.70;4.97;;;40.40;58.20;;;;;;5069941;28;20233;-72
2022/07/20 09:21:32;;;;;;;6.85;4.07;;;40.00;57.50;;;;;;5070622;28;20275;-69
2022/07/20 09:24:07;;;;;;;8.38;4.47;;;39.80;57.70;;;;;;5067808;28;20167;-70
2022/07/20 09:26:33;;;;;;;7.03;4.70;;;40.10;57.60;;;;;;5071114;28;20194;-70
2022/07/20 09:29:00;;;;;;;11.15;5.55;;;40.70;57.60;;;;;;5070308;28;20210;-69
2022/07/20 09:31:35;;;;;;;11.00;4.93;;;40.50;56.80;;;;;;5052288;28;20235;-70
2022/07/20 09:34:09;;;;;;;10.43;4.60;;;40.00;57.20;;;;;;5070628;28;20702;-70
2022/07/20 09:36:44;;;;;;;8.23;4.68;;;39.90;57.40;;;;;;5052543;28;20218;-71
2022/07/20 09:39:11;;;;;;;6.57;4.22;;;39.60;57.60;;;;;;5070215;28;20173;-69
2022/07/20 09:41:39;;;;;;;14.73;5.70;;;40.20;57.50;;;;;;5070566;28;20628;-70
2022/07/20 09:44:06;;;;;;;7.13;4.10;;;40.10;57.60;;;;;;5069305;28;20206;-70
2022/07/20 09:46:37;;;;;;;7.40;4.68;;;39.70;57.10;;;;;;5070402;28;20220;-70
2022/07/20 09:49:07;;;;;;;9.15;4.75;;;39.80;57.90;;;;;;5052236;28;20574;-71
2022/07/20 09:51:35;;;;;;;11.85;4.05;;;39.60;57.50;;;;;;5061939;28;20219;-70
2022/07/20 09:54:17;;;;;;;7.13;4.72;;;39.20;57.00;;;;;;5070684;28;20265;-71
2022/07/20 09:56:45;;;;;;;7.95;4.35;;;38.40;57.50;;;;;;5052916;28;20707;-71
2022/07/20 09:59:12;;;;;;;5.90;4.57;;;37.90;58.00;;;;;;5070285;28;20202;-71
2022/07/20 10:01:44;;;;;;;10.82;6.10;;;38.10;58.40;;;;;;5052179;28;20749;-71
2022/07/20 10:04:11;;;;;;;5.07;4.10;;;38.00;58.20;;;;;;5069960;28;20670;-70
2022/07/20 10:06:39;;;;;;;5.50;4.15;;;38.00;58.40;;;;;;5052517;28;20644;-72
2022/07/20 10:09:06;;;;;;;7.90;4.70;;;38.30;58.70;;;;;;5070057;28;20624;-71
2022/07/20 10:11:32;;;;;;;6.60;4.72;;;38.00;57.70;;;;;;5052651;28;20233;-71
2022/07/20 10:14:01;;;;;;;5.28;3.95;;;37.90;58.40;;;;;;5070152;28;20280;-72
2022/07/20 10:16:38;;;;;;;8.63;4.00;;;38.10;57.90;;;;;;5068819;28;20222;-70
2022/07/20 10:19:08;;;;;;;4.78;3.97;;;38.30;57.60;;;;;;5070128;28;20202;-71
2022/07/20 10:22:00;;;;;;;12.18;5.22;;;38.30;57.20;;;;;;5052052;28;20290;-71
2022/07/20 10:24:30;;;;;;;8.70;4.40;;;38.50;56.80;;;;;;5063193;28;20210;-70
2022/07/20 10:27:26;;;;;;;9.20;4.68;;;38.30;57.10;;;;;;5052334;28;20214;-71
2022/07/20 10:29:54;;;;;;;11.52;6.55;;;38.30;57.90;;;;;;5063005;28;20167;-72
2022/07/20 10:32:28;;;;;;;6.35;4.43;;;38.50;57.50;;;;;;5070143;28;20210;-71
2022/07/20 10:35:02;;;;;;;7.45;6.10;;;38.70;57.60;;;;;;5062888;28;20217;-70
2022/07/20 10:37:37;;;;;;;8.57;4.28;;;39.20;56.20;;;;;;5070105;28;20667;-71
2022/07/20 10:40:16;;;;;;;7.63;4.10;;;39.60;56.50;;;;;;5051608;28;20233;-72
2022/07/20 10:42:45;;;;;;;7.45;4.28;;;38.90;56.00;;;;;;5070169;28;20229;-70
2022/07/20 10:45:17;;;;;;;8.35;4.28;;;38.60;56.20;;;;;;5069751;28;20548;-71
2022/07/20 10:47:48;;;;;;;5.80;4.10;;;38.50;56.50;;;;;;5070393;28;20228;-71
2022/07/20 10:50:19;;;;;;;7.10;4.38;;;38.30;56.50;;;;;;5051859;28;20290;-71
2022/07/20 10:52:46;;;;;;;5.65;4.18;;;38.50;57.00;;;;;;5070077;28;20233;-71
2022/07/20 10:55:37;;;;;;;14.82;4.68;;;38.50;56.80;;;;;;5073278;28;20214;-70
2022/07/20 10:58:12;;;;;;;8.05;4.47;;;39.00;56.20;;;;;;5067262;28;20206;-71
2022/07/20 11:00:52;;;;;;;6.65;4.00;;;38.50;55.30;;;;;;5073415;28;20226;-71
2022/07/20 11:03:30;;;;;;;9.50;4.25;;;38.70;55.40;;;;;;5073344;28;20249;-71
2022/07/20 11:06:08;;;;;;;5.28;3.60;;;38.10;55.70;;;;;;5066481;28;20278;-71
2022/07/20 11:08:35;;;;;;;4.32;3.92;;;38.10;55.90;;;;;;5073376;28;20163;-71
2022/07/20 11:11:01;;;;;;;5.65;3.75;;;37.90;55.70;;;;;;5073377;28;20206;-72
2022/07/20 11:13:27;;;;;;;10.75;4.38;;;38.10;56.30;;;;;;5073098;28;20253;-71
2022/07/20 11:15:57;;;;;;;6.13;4.00;;;37.80;55.90;;;;;;5054489;28;20610;-71
2022/07/20 11:18:25;;;;;;;6.35;3.80;;;37.60;56.30;;;;;;5072744;28;20706;-71
2022/07/20 11:21:09;;;;;;;5.38;4.38;;;37.80;56.50;;;;;;5073609;28;20214;-70
2022/07/20 11:23:40;;;;;;;9.15;4.57;;;37.80;56.50;;;;;;5070002;28;20207;-72
2022/07/20 11:26:05;;;;;;;10.27;4.60;;;37.70;56.40;;;;;;5072849;28;20313;-71
2022/07/20 11:28:58;;;;;;;8.57;4.30;;;37.70;56.80;;;;;;5054806;28;20742;-71
2022/07/20 11:31:28;;;;;;;8.40;4.25;;;37.70;56.20;;;;;;5069362;28;20218;-73
2022/07/20 11:33:55;;;;;;;8.13;4.10;;;38.00;56.80;;;;;;5054812;28;20225;-72
2022/07/20 11:36:31;;;;;;;5.18;4.25;;;38.00;56.50;;;;;;5072692;28;20703;-71
2022/07/20 11:39:01;;;;;;;7.85;4.47;;;37.90;57.20;;;;;;5072604;28;20170;-71
2022/07/20 11:41:30;;;;;;;7.10;4.53;;;37.30;55.50;;;;;;5074136;28;20810;-73
2022/07/20 11:43:55;;;;;;;7.35;3.70;;;37.40;56.40;;;;;;5054734;28;20713;-72
2022/07/20 11:46:25;;;;;;;5.57;3.88;;;37.40;56.10;;;;;;5072056;28;20206;-72
2022/07/20 11:49:03;;;;;;;5.43;4.05;;;37.50;56.40;;;;;;5072059;28;20225;-72
2022/07/20 11:51:30;;;;;;;6.57;3.88;;;37.50;56.50;;;;;;5054506;28;20218;-72
2022/07/20 11:53:56;;;;;;;5.00;3.67;;;37.30;56.20;;;;;;5054589;28;20248;-72
2022/07/20 11:56:28;;;;;;;6.00;3.63;;;37.40;56.00;;;;;;5072518;28;20767;-72
2022/07/20 11:58:58;;;;;;;6.88;4.22;;;37.40;56.40;;;;;;5072285;28;20221;-72
2022/07/20 12:01:29;;;;;;;6.88;3.95;;;37.20;56.30;;;;;;5072062;28;20206;-72
2022/07/20 12:04:00;;;;;;;6.38;3.90;;;37.20;57.40;;;;;;5072500;28;20210;-72
2022/07/20 12:06:29;;;;;;;7.18;3.90;;;37.30;56.50;;;;;;5071150;28;20737;-72
2022/07/20 12:09:12;;;;;;;10.20;4.30;;;37.40;56.50;;;;;;5071816;28;20171;-72
2022/07/20 12:12:04;;;;;;;5.57;4.07;;;37.50;56.30;;;;;;5072495;28;20216;-72
2022/07/20 12:14:34;;;;;;;7.78;4.43;;;37.50;55.80;;;;;;5071771;28;20222;-72
2022/07/20 12:17:21;;;;;;;5.75;4.35;;;37.30;55.70;;;;;;5071847;28;20248;-72
2022/07/20 12:19:49;;;;;;;9.80;4.03;;;37.30;56.00;;;;;;5050237;28;20230;-72
2022/07/20 12:22:17;;;;;;;5.38;3.42;;;37.10;56.10;;;;;;5067416;28;20256;-72
2022/07/20 12:24:52;;;;;;;6.32;3.60;;;37.30;56.10;;;;;;5068545;28;20202;-72
2022/07/20 12:27:19;;;;;;;6.78;3.92;;;37.20;56.30;;;;;;5071933;28;21042;-71
2022/07/20 12:29:44;;;;;;;8.68;4.15;;;37.00;55.80;;;;;;5071905;28;20662;-72
2022/07/20 12:32:10;;;;;;;6.07;3.75;;;36.90;55.80;;;;;;5071675;28;20210;-72
2022/07/20 12:34:53;;;;;;;7.43;4.63;;;37.00;55.80;;;;;;5071362;28;20690;-72
2022/07/20 12:37:21;;;;;;;5.82;4.15;;;37.00;56.00;;;;;;5071608;28;20206;-72
2022/07/20 12:39:53;;;;;;;7.00;4.57;;;37.00;56.60;;;;;;5070973;28;20218;-72
2022/07/20 12:42:24;;;;;;;11.35;4.05;;;36.90;57.30;;;;;;5071570;28;20587;-73
2022/07/20 12:45:02;;;;;;;7.05;4.25;;;36.80;57.20;;;;;;5041619;28;20266;-72
2022/07/20 12:47:29;;;;;;;5.85;4.35;;;36.90;57.50;;;;;;5051306;28;20260;-72
2022/07/20 12:49:54;;;;;;;7.80;4.22;;;36.90;57.60;;;;;;5071199;28;20252;-72
2022/07/20 12:52:20;;;;;;;8.27;4.47;;;36.90;57.60;;;;;;5071322;28;20210;-73